sensor_id;sensor_type;location;lat;lon;timestamp;P1;durP1;ratioP1;P2;durP2;ratioP2
24715;SDS011;12822;50.124;8.678;2022-11-11T00:00:15;29.67;;;13.07;;
24715;SDS011;12822;50.124;8.678;2022-11-11T00:02:41;27.67;;;13.45;;
24715;SDS011;12822;50.124;8.678;2022-11-11T00:05:07;32.90;;;14.45;;
24715;SDS011;12822;50.124;8.678;2022-11-11T00:07:33;23.98;;;13.00;;
24715;SDS011;12822;50.124;8.678;2022-11-11T00:09:59;28.05;;;14.95;;
24715;SDS011;12822;50.124;8.678;2022-11-11T00:12:25;30.95;;;14.52;;
24715;SDS011;12822;50.124;8.678;2022-11-11T00:14:51;32.92;;;14.82;;
24715;SDS011;12822;50.124;8.678;2022-11-11T00:17:17;34.75;;;16.02;;
24715;SDS011;12822;50.124;8.678;2022-11-11T00:20:02;38.42;;;16.70;;
24715;SDS011;12822;50.124;8.678;2022-11-11T00:22:46;32.53;;;15.38;;
24715;SDS011;12822;50.124;8.678;2022-11-11T00:25:31;34.58;;;15.48;;
24715;SDS011;12822;50.124;8.678;2022-11-11T00:27:57;37.85;;;15.60;;
24715;SDS011;12822;50.124;8.678;2022-11-11T00:30:23;29.67;;;15.68;;
24715;SDS011;12822;50.124;8.678;2022-11-11T00:32:49;33.50;;;15.60;;
24715;SDS011;12822;50.124;8.678;2022-11-11T00:35:15;27.90;;;13.77;;
24715;SDS011;12822;50.124;8.678;2022-11-11T00:38:09;29.90;;;14.77;;
24715;SDS011;12822;50.124;8.678;2022-11-11T00:40:56;31.92;;;14.05;;
24715;SDS011;12822;50.124;8.678;2022-11-11T00:43:22;31.30;;;14.93;;
24715;SDS011;12822;50.124;8.678;2022-11-11T00:45:48;26.52;;;14.75;;
24715;SDS011;12822;50.124;8.678;2022-11-11T00:48:14;30.60;;;15.02;;
24715;SDS011;12822;50.124;8.678;2022-11-11T00:51:03;34.15;;;14.63;;
24715;SDS011;12822;50.124;8.678;2022-11-11T00:53:29;32.65;;;15.32;;
24715;SDS011;12822;50.124;8.678;2022-11-11T00:56:04;31.80;;;14.43;;
24715;SDS011;12822;50.124;8.678;2022-11-11T00:58:30;34.50;;;15.10;;
24715;SDS011;12822;50.124;8.678;2022-11-11T01:00:56;34.08;;;15.75;;
24715;SDS011;12822;50.124;8.678;2022-11-11T01:03:22;30.95;;;14.70;;
24715;SDS011;12822;50.124;8.678;2022-11-11T01:05:48;32.40;;;14.68;;
24715;SDS011;12822;50.124;8.678;2022-11-11T01:08:14;27.90;;;14.57;;
24715;SDS011;12822;50.124;8.678;2022-11-11T01:10:40;29.77;;;15.82;;
24715;SDS011;12822;50.124;8.678;2022-11-11T01:13:18;30.42;;;14.73;;
24715;SDS011;12822;50.124;8.678;2022-11-11T01:15:46;33.90;;;15.20;;
24715;SDS011;12822;50.124;8.678;2022-11-11T01:18:13;30.83;;;15.85;;
24715;SDS011;12822;50.124;8.678;2022-11-11T01:20:39;31.58;;;15.20;;
24715;SDS011;12822;50.124;8.678;2022-11-11T01:23:06;36.20;;;16.20;;
24715;SDS011;12822;50.124;8.678;2022-11-11T01:25:33;29.50;;;16.35;;
24715;SDS011;12822;50.124;8.678;2022-11-11T01:27:59;36.05;;;17.10;;
24715;SDS011;12822;50.124;8.678;2022-11-11T01:30:25;41.22;;;17.58;;
24715;SDS011;12822;50.124;8.678;2022-11-11T01:32:51;36.75;;;17.35;;
24715;SDS011;12822;50.124;8.678;2022-11-11T01:35:17;36.05;;;16.20;;
24715;SDS011;12822;50.124;8.678;2022-11-11T01:37:43;37.03;;;19.27;;
24715;SDS011;12822;50.124;8.678;2022-11-11T01:40:09;38.55;;;18.58;;
24715;SDS011;12822;50.124;8.678;2022-11-11T01:42:48;40.78;;;18.80;;
24715;SDS011;12822;50.124;8.678;2022-11-11T01:47:59;41.78;;;19.25;;
24715;SDS011;12822;50.124;8.678;2022-11-11T01:50:44;36.67;;;17.25;;
24715;SDS011;12822;50.124;8.678;2022-11-11T01:53:10;37.47;;;18.15;;
24715;SDS011;12822;50.124;8.678;2022-11-11T01:55:36;34.55;;;17.70;;
24715;SDS011;12822;50.124;8.678;2022-11-11T01:58:03;36.78;;;18.80;;
24715;SDS011;12822;50.124;8.678;2022-11-11T02:00:30;45.95;;;18.50;;
24715;SDS011;12822;50.124;8.678;2022-11-11T02:03:06;37.00;;;17.88;;
24715;SDS011;12822;50.124;8.678;2022-11-11T02:05:33;33.85;;;17.70;;
24715;SDS011;12822;50.124;8.678;2022-11-11T02:08:13;36.85;;;17.08;;
24715;SDS011;12822;50.124;8.678;2022-11-11T02:10:41;34.35;;;17.85;;
24715;SDS011;12822;50.124;8.678;2022-11-11T02:13:11;35.80;;;18.38;;
24715;SDS011;12822;50.124;8.678;2022-11-11T02:15:56;43.58;;;19.33;;
24715;SDS011;12822;50.124;8.678;2022-11-11T02:18:22;36.33;;;18.65;;
24715;SDS011;12822;50.124;8.678;2022-11-11T02:20:48;39.40;;;17.77;;
24715;SDS011;12822;50.124;8.678;2022-11-11T02:23:15;41.55;;;19.25;;
24715;SDS011;12822;50.124;8.678;2022-11-11T02:25:45;35.83;;;17.50;;
24715;SDS011;12822;50.124;8.678;2022-11-11T02:28:12;40.58;;;17.35;;
24715;SDS011;12822;50.124;8.678;2022-11-11T02:30:38;37.42;;;18.75;;
24715;SDS011;12822;50.124;8.678;2022-11-11T02:33:05;38.83;;;18.00;;
24715;SDS011;12822;50.124;8.678;2022-11-11T02:35:32;37.90;;;17.75;;
24715;SDS011;12822;50.124;8.678;2022-11-11T02:37:58;42.70;;;19.17;;
24715;SDS011;12822;50.124;8.678;2022-11-11T02:40:30;38.90;;;19.08;;
24715;SDS011;12822;50.124;8.678;2022-11-11T02:42:57;42.35;;;18.95;;
24715;SDS011;12822;50.124;8.678;2022-11-11T02:45:23;38.92;;;18.33;;
24715;SDS011;12822;50.124;8.678;2022-11-11T02:47:49;38.22;;;18.65;;
24715;SDS011;12822;50.124;8.678;2022-11-11T02:50:15;34.55;;;17.10;;
24715;SDS011;12822;50.124;8.678;2022-11-11T02:52:41;34.17;;;17.88;;
24715;SDS011;12822;50.124;8.678;2022-11-11T02:55:07;43.22;;;19.02;;
24715;SDS011;12822;50.124;8.678;2022-11-11T02:57:33;35.20;;;18.60;;
24715;SDS011;12822;50.124;8.678;2022-11-11T02:59:59;37.58;;;19.58;;
24715;SDS011;12822;50.124;8.678;2022-11-11T03:02:26;37.35;;;18.48;;
24715;SDS011;12822;50.124;8.678;2022-11-11T03:04:53;35.28;;;18.83;;
24715;SDS011;12822;50.124;8.678;2022-11-11T03:07:20;43.00;;;19.77;;
24715;SDS011;12822;50.124;8.678;2022-11-11T03:09:46;36.22;;;18.40;;
24715;SDS011;12822;50.124;8.678;2022-11-11T03:12:12;37.63;;;17.88;;
24715;SDS011;12822;50.124;8.678;2022-11-11T03:14:38;36.28;;;18.25;;
24715;SDS011;12822;50.124;8.678;2022-11-11T03:17:04;40.30;;;18.73;;
24715;SDS011;12822;50.124;8.678;2022-11-11T03:19:49;37.95;;;18.60;;
24715;SDS011;12822;50.124;8.678;2022-11-11T03:22:15;36.78;;;17.52;;
24715;SDS011;12822;50.124;8.678;2022-11-11T03:24:40;40.63;;;18.52;;
24715;SDS011;12822;50.124;8.678;2022-11-11T03:27:25;38.60;;;18.52;;
24715;SDS011;12822;50.124;8.678;2022-11-11T03:29:51;33.50;;;18.20;;
24715;SDS011;12822;50.124;8.678;2022-11-11T03:32:17;40.92;;;19.02;;
24715;SDS011;12822;50.124;8.678;2022-11-11T03:34:43;36.33;;;18.60;;
24715;SDS011;12822;50.124;8.678;2022-11-11T03:37:10;42.67;;;19.58;;
24715;SDS011;12822;50.124;8.678;2022-11-11T03:39:54;41.47;;;19.98;;
24715;SDS011;12822;50.124;8.678;2022-11-11T03:42:20;39.35;;;18.13;;
24715;SDS011;12822;50.124;8.678;2022-11-11T03:44:46;41.38;;;20.35;;
24715;SDS011;12822;50.124;8.678;2022-11-11T03:47:12;38.25;;;20.02;;
24715;SDS011;12822;50.124;8.678;2022-11-11T03:49:40;37.17;;;19.52;;
24715;SDS011;12822;50.124;8.678;2022-11-11T03:52:06;46.95;;;21.70;;
24715;SDS011;12822;50.124;8.678;2022-11-11T03:54:32;43.00;;;22.13;;
24715;SDS011;12822;50.124;8.678;2022-11-11T03:56:58;50.30;;;22.67;;
24715;SDS011;12822;50.124;8.678;2022-11-11T04:00:03;50.90;;;20.50;;
24715;SDS011;12822;50.124;8.678;2022-11-11T04:02:29;44.58;;;21.55;;
24715;SDS011;12822;50.124;8.678;2022-11-11T04:05:14;42.47;;;21.67;;
24715;SDS011;12822;50.124;8.678;2022-11-11T04:07:59;42.55;;;20.38;;
24715;SDS011;12822;50.124;8.678;2022-11-11T04:10:43;40.90;;;20.27;;
24715;SDS011;12822;50.124;8.678;2022-11-11T04:13:09;39.03;;;20.55;;
24715;SDS011;12822;50.124;8.678;2022-11-11T04:15:54;42.00;;;20.20;;
24715;SDS011;12822;50.124;8.678;2022-11-11T04:18:33;34.35;;;18.83;;
24715;SDS011;12822;50.124;8.678;2022-11-11T04:21:18;41.47;;;20.48;;
24715;SDS011;12822;50.124;8.678;2022-11-11T04:24:03;43.88;;;22.02;;
24715;SDS011;12822;50.124;8.678;2022-11-11T04:26:47;32.45;;;19.48;;
24715;SDS011;12822;50.124;8.678;2022-11-11T04:29:13;37.97;;;19.55;;
24715;SDS011;12822;50.124;8.678;2022-11-11T04:34:49;36.75;;;19.65;;
24715;SDS011;12822;50.124;8.678;2022-11-11T04:37:16;35.40;;;18.13;;
24715;SDS011;12822;50.124;8.678;2022-11-11T04:39:42;40.53;;;19.65;;
24715;SDS011;12822;50.124;8.678;2022-11-11T04:42:27;40.83;;;19.02;;
24715;SDS011;12822;50.124;8.678;2022-11-11T04:44:53;38.10;;;18.92;;
24715;SDS011;12822;50.124;8.678;2022-11-11T04:47:50;35.25;;;18.30;;
24715;SDS011;12822;50.124;8.678;2022-11-11T04:50:17;31.33;;;17.25;;
24715;SDS011;12822;50.124;8.678;2022-11-11T04:52:43;28.33;;;16.75;;
24715;SDS011;12822;50.124;8.678;2022-11-11T04:55:08;28.05;;;15.95;;
24715;SDS011;12822;50.124;8.678;2022-11-11T04:57:53;24.63;;;14.88;;
24715;SDS011;12822;50.124;8.678;2022-11-11T05:00:19;19.77;;;12.82;;
24715;SDS011;12822;50.124;8.678;2022-11-11T05:02:45;22.00;;;12.68;;
24715;SDS011;12822;50.124;8.678;2022-11-11T05:05:29;22.38;;;12.40;;
24715;SDS011;12822;50.124;8.678;2022-11-11T05:08:19;18.23;;;11.60;;
24715;SDS011;12822;50.124;8.678;2022-11-11T05:11:03;22.30;;;12.38;;
24715;SDS011;12822;50.124;8.678;2022-11-11T05:13:29;22.58;;;12.15;;
24715;SDS011;12822;50.124;8.678;2022-11-11T05:16:15;20.55;;;11.98;;
24715;SDS011;12822;50.124;8.678;2022-11-11T05:19:01;20.10;;;12.15;;
24715;SDS011;12822;50.124;8.678;2022-11-11T05:21:45;19.55;;;11.93;;
24715;SDS011;12822;50.124;8.678;2022-11-11T05:24:11;23.80;;;12.68;;
24715;SDS011;12822;50.124;8.678;2022-11-11T05:26:56;24.92;;;13.45;;
24715;SDS011;12822;50.124;8.678;2022-11-11T05:29:22;25.25;;;13.90;;
24715;SDS011;12822;50.124;8.678;2022-11-11T05:31:48;21.55;;;13.68;;
24715;SDS011;12822;50.124;8.678;2022-11-11T05:34:14;28.42;;;15.80;;
24715;SDS011;12822;50.124;8.678;2022-11-11T05:36:40;27.25;;;15.88;;
24715;SDS011;12822;50.124;8.678;2022-11-11T05:39:06;27.13;;;15.07;;
24715;SDS011;12822;50.124;8.678;2022-11-11T05:41:32;25.73;;;15.18;;
24715;SDS011;12822;50.124;8.678;2022-11-11T05:43:58;31.27;;;15.00;;
24715;SDS011;12822;50.124;8.678;2022-11-11T05:46:24;25.40;;;14.25;;
24715;SDS011;12822;50.124;8.678;2022-11-11T05:48:50;24.60;;;13.18;;
24715;SDS011;12822;50.124;8.678;2022-11-11T05:51:35;21.75;;;12.02;;
24715;SDS011;12822;50.124;8.678;2022-11-11T05:54:01;17.50;;;11.20;;
24715;SDS011;12822;50.124;8.678;2022-11-11T05:56:27;18.33;;;11.02;;
24715;SDS011;12822;50.124;8.678;2022-11-11T05:58:53;19.10;;;11.60;;
24715;SDS011;12822;50.124;8.678;2022-11-11T06:01:19;21.80;;;11.88;;
24715;SDS011;12822;50.124;8.678;2022-11-11T06:03:45;17.55;;;11.18;;
24715;SDS011;12822;50.124;8.678;2022-11-11T06:06:12;21.42;;;14.10;;
24715;SDS011;12822;50.124;8.678;2022-11-11T06:08:38;32.35;;;15.02;;
24715;SDS011;12822;50.124;8.678;2022-11-11T06:11:04;26.77;;;15.00;;
24715;SDS011;12822;50.124;8.678;2022-11-11T06:13:30;26.55;;;15.27;;
24715;SDS011;12822;50.124;8.678;2022-11-11T06:15:58;33.88;;;16.08;;
24715;SDS011;12822;50.124;8.678;2022-11-11T06:18:24;31.77;;;15.10;;
24715;SDS011;12822;50.124;8.678;2022-11-11T06:20:53;29.50;;;15.95;;
24715;SDS011;12822;50.124;8.678;2022-11-11T06:23:19;30.73;;;16.67;;
24715;SDS011;12822;50.124;8.678;2022-11-11T06:25:45;33.30;;;16.67;;
24715;SDS011;12822;50.124;8.678;2022-11-11T06:28:30;30.58;;;16.17;;
24715;SDS011;12822;50.124;8.678;2022-11-11T06:30:56;32.35;;;17.23;;
24715;SDS011;12822;50.124;8.678;2022-11-11T06:33:22;44.78;;;16.38;;
24715;SDS011;12822;50.124;8.678;2022-11-11T06:35:48;34.22;;;17.77;;
24715;SDS011;12822;50.124;8.678;2022-11-11T06:38:15;36.45;;;17.85;;
24715;SDS011;12822;50.124;8.678;2022-11-11T06:40:42;36.85;;;17.95;;
24715;SDS011;12822;50.124;8.678;2022-11-11T06:43:08;35.40;;;18.25;;
24715;SDS011;12822;50.124;8.678;2022-11-11T06:45:34;39.08;;;17.73;;
24715;SDS011;12822;50.124;8.678;2022-11-11T06:48:03;34.92;;;18.25;;
24715;SDS011;12822;50.124;8.678;2022-11-11T06:50:32;40.95;;;18.95;;
24715;SDS011;12822;50.124;8.678;2022-11-11T06:55:54;57.90;;;17.63;;
24715;SDS011;12822;50.124;8.678;2022-11-11T06:58:21;43.22;;;19.05;;
24715;SDS011;12822;50.124;8.678;2022-11-11T07:00:47;43.35;;;18.17;;
24715;SDS011;12822;50.124;8.678;2022-11-11T07:03:15;45.65;;;19.60;;
24715;SDS011;12822;50.124;8.678;2022-11-11T07:05:41;40.58;;;17.92;;
24715;SDS011;12822;50.124;8.678;2022-11-11T07:08:09;50.95;;;21.65;;
24715;SDS011;12822;50.124;8.678;2022-11-11T07:10:36;47.50;;;19.48;;
24715;SDS011;12822;50.124;8.678;2022-11-11T07:13:03;40.53;;;17.38;;
24715;SDS011;12822;50.124;8.678;2022-11-11T07:15:29;37.20;;;15.05;;
24715;SDS011;12822;50.124;8.678;2022-11-11T07:17:55;31.55;;;15.02;;
24715;SDS011;12822;50.124;8.678;2022-11-11T07:20:21;30.92;;;16.30;;
24715;SDS011;12822;50.124;8.678;2022-11-11T07:22:47;40.40;;;17.83;;
24715;SDS011;12822;50.124;8.678;2022-11-11T07:25:13;47.22;;;18.45;;
24715;SDS011;12822;50.124;8.678;2022-11-11T07:27:40;41.08;;;17.63;;
24715;SDS011;12822;50.124;8.678;2022-11-11T07:30:06;42.17;;;17.42;;
24715;SDS011;12822;50.124;8.678;2022-11-11T07:32:32;42.92;;;17.45;;
24715;SDS011;12822;50.124;8.678;2022-11-11T07:34:59;35.60;;;16.85;;
24715;SDS011;12822;50.124;8.678;2022-11-11T07:37:25;43.22;;;17.88;;
24715;SDS011;12822;50.124;8.678;2022-11-11T07:39:51;38.00;;;18.73;;
24715;SDS011;12822;50.124;8.678;2022-11-11T07:42:17;38.40;;;18.15;;
24715;SDS011;12822;50.124;8.678;2022-11-11T07:44:43;49.08;;;18.65;;
24715;SDS011;12822;50.124;8.678;2022-11-11T07:47:09;60.05;;;20.52;;
24715;SDS011;12822;50.124;8.678;2022-11-11T07:49:35;42.80;;;18.90;;
24715;SDS011;12822;50.124;8.678;2022-11-11T07:52:01;48.42;;;21.33;;
24715;SDS011;12822;50.124;8.678;2022-11-11T07:54:27;51.38;;;22.73;;
24715;SDS011;12822;50.124;8.678;2022-11-11T07:56:52;50.85;;;21.40;;
24715;SDS011;12822;50.124;8.678;2022-11-11T07:59:18;52.05;;;21.73;;
24715;SDS011;12822;50.124;8.678;2022-11-11T08:01:44;60.13;;;23.65;;
24715;SDS011;12822;50.124;8.678;2022-11-11T08:04:10;53.53;;;23.15;;
24715;SDS011;12822;50.124;8.678;2022-11-11T08:06:36;63.42;;;24.83;;
24715;SDS011;12822;50.124;8.678;2022-11-11T08:09:02;54.55;;;23.67;;
24715;SDS011;12822;50.124;8.678;2022-11-11T08:11:28;58.65;;;24.60;;
24715;SDS011;12822;50.124;8.678;2022-11-11T08:14:13;49.72;;;23.65;;
24715;SDS011;12822;50.124;8.678;2022-11-11T08:16:39;53.45;;;22.63;;
24715;SDS011;12822;50.124;8.678;2022-11-11T08:19:05;53.92;;;22.30;;
24715;SDS011;12822;50.124;8.678;2022-11-11T08:21:31;57.80;;;23.30;;
24715;SDS011;12822;50.124;8.678;2022-11-11T08:23:57;48.63;;;21.55;;
24715;SDS011;12822;50.124;8.678;2022-11-11T08:26:23;46.88;;;23.02;;
24715;SDS011;12822;50.124;8.678;2022-11-11T08:28:50;48.45;;;21.55;;
24715;SDS011;12822;50.124;8.678;2022-11-11T08:31:16;53.50;;;21.75;;
24715;SDS011;12822;50.124;8.678;2022-11-11T08:33:42;43.08;;;20.00;;
24715;SDS011;12822;50.124;8.678;2022-11-11T08:36:09;46.53;;;20.42;;
24715;SDS011;12822;50.124;8.678;2022-11-11T08:38:35;45.38;;;20.88;;
24715;SDS011;12822;50.124;8.678;2022-11-11T08:41:02;54.88;;;23.15;;
24715;SDS011;12822;50.124;8.678;2022-11-11T08:43:28;50.97;;;21.73;;
24715;SDS011;12822;50.124;8.678;2022-11-11T08:45:56;52.92;;;21.80;;
24715;SDS011;12822;50.124;8.678;2022-11-11T08:48:22;49.30;;;20.98;;
24715;SDS011;12822;50.124;8.678;2022-11-11T08:50:50;48.75;;;21.70;;
24715;SDS011;12822;50.124;8.678;2022-11-11T08:53:16;49.50;;;22.95;;
24715;SDS011;12822;50.124;8.678;2022-11-11T08:55:42;54.03;;;21.48;;
24715;SDS011;12822;50.124;8.678;2022-11-11T08:58:08;61.13;;;23.40;;
24715;SDS011;12822;50.124;8.678;2022-11-11T09:00:34;51.45;;;23.55;;
24715;SDS011;12822;50.124;8.678;2022-11-11T09:03:01;50.58;;;22.77;;
24715;SDS011;12822;50.124;8.678;2022-11-11T09:05:28;56.08;;;22.17;;
24715;SDS011;12822;50.124;8.678;2022-11-11T09:07:54;55.80;;;22.10;;
24715;SDS011;12822;50.124;8.678;2022-11-11T09:10:20;57.35;;;22.67;;
24715;SDS011;12822;50.124;8.678;2022-11-11T09:12:46;53.33;;;22.02;;
24715;SDS011;12822;50.124;8.678;2022-11-11T09:15:12;64.15;;;24.77;;
24715;SDS011;12822;50.124;8.678;2022-11-11T09:17:38;51.20;;;23.13;;
24715;SDS011;12822;50.124;8.678;2022-11-11T09:20:04;51.97;;;23.35;;
24715;SDS011;12822;50.124;8.678;2022-11-11T09:22:31;50.05;;;23.52;;
24715;SDS011;12822;50.124;8.678;2022-11-11T09:24:57;47.08;;;23.50;;
24715;SDS011;12822;50.124;8.678;2022-11-11T09:27:23;46.45;;;22.58;;
24715;SDS011;12822;50.124;8.678;2022-11-11T09:29:49;51.50;;;23.73;;
24715;SDS011;12822;50.124;8.678;2022-11-11T09:32:15;53.90;;;24.02;;
24715;SDS011;12822;50.124;8.678;2022-11-11T09:34:41;51.13;;;24.95;;
24715;SDS011;12822;50.124;8.678;2022-11-11T09:37:07;51.72;;;25.17;;
24715;SDS011;12822;50.124;8.678;2022-11-11T09:39:33;68.32;;;25.85;;
24715;SDS011;12822;50.124;8.678;2022-11-11T09:47:38;57.95;;;26.58;;
24715;SDS011;12822;50.124;8.678;2022-11-11T09:50:11;55.45;;;27.00;;
24715;SDS011;12822;50.124;8.678;2022-11-11T09:55:05;50.33;;;25.67;;
24715;SDS011;12822;50.124;8.678;2022-11-11T09:57:38;58.50;;;27.08;;
24715;SDS011;12822;50.124;8.678;2022-11-11T10:00:06;54.10;;;26.80;;
24715;SDS011;12822;50.124;8.678;2022-11-11T10:02:43;52.50;;;28.13;;
24715;SDS011;12822;50.124;8.678;2022-11-11T10:05:15;52.78;;;28.13;;
24715;SDS011;12822;50.124;8.678;2022-11-11T10:07:44;54.35;;;26.92;;
24715;SDS011;12822;50.124;8.678;2022-11-11T10:12:57;46.55;;;25.30;;
24715;SDS011;12822;50.124;8.678;2022-11-11T10:20:29;49.08;;;26.08;;
24715;SDS011;12822;50.124;8.678;2022-11-11T10:22:59;45.78;;;25.10;;
24715;SDS011;12822;50.124;8.678;2022-11-11T10:25:26;50.10;;;26.70;;
24715;SDS011;12822;50.124;8.678;2022-11-11T10:27:54;49.58;;;27.35;;
24715;SDS011;12822;50.124;8.678;2022-11-11T10:30:22;52.53;;;26.58;;
24715;SDS011;12822;50.124;8.678;2022-11-11T10:32:56;55.70;;;28.05;;
24715;SDS011;12822;50.124;8.678;2022-11-11T10:35:24;51.72;;;28.52;;
24715;SDS011;12822;50.124;8.678;2022-11-11T10:37:52;48.20;;;27.77;;
24715;SDS011;12822;50.124;8.678;2022-11-11T10:40:21;55.13;;;29.00;;
24715;SDS011;12822;50.124;8.678;2022-11-11T10:42:49;52.63;;;29.60;;
24715;SDS011;12822;50.124;8.678;2022-11-11T10:48:01;53.03;;;28.15;;
24715;SDS011;12822;50.124;8.678;2022-11-11T10:50:33;54.60;;;28.80;;
24715;SDS011;12822;50.124;8.678;2022-11-11T10:58:21;51.50;;;29.33;;
24715;SDS011;12822;50.124;8.678;2022-11-11T11:00:49;49.90;;;29.17;;
24715;SDS011;12822;50.124;8.678;2022-11-11T11:03:20;47.35;;;28.10;;
24715;SDS011;12822;50.124;8.678;2022-11-11T11:05:49;47.95;;;28.33;;
24715;SDS011;12822;50.124;8.678;2022-11-11T11:08:21;47.90;;;29.60;;
24715;SDS011;12822;50.124;8.678;2022-11-11T11:10:59;45.53;;;28.50;;
24715;SDS011;12822;50.124;8.678;2022-11-11T11:15:56;51.90;;;29.75;;
24715;SDS011;12822;50.124;8.678;2022-11-11T11:18:23;45.88;;;27.92;;
24715;SDS011;12822;50.124;8.678;2022-11-11T11:20:54;52.08;;;27.45;;
24715;SDS011;12822;50.124;8.678;2022-11-11T11:23:40;43.47;;;26.25;;
24715;SDS011;12822;50.124;8.678;2022-11-11T11:26:07;41.42;;;25.83;;
24715;SDS011;12822;50.124;8.678;2022-11-11T11:28:33;44.47;;;27.70;;
24715;SDS011;12822;50.124;8.678;2022-11-11T11:31:03;46.42;;;26.42;;
24715;SDS011;12822;50.124;8.678;2022-11-11T11:36:15;44.03;;;26.50;;
24715;SDS011;12822;50.124;8.678;2022-11-11T11:38:44;47.25;;;26.05;;
24715;SDS011;12822;50.124;8.678;2022-11-11T11:41:11;46.05;;;25.52;;
24715;SDS011;12822;50.124;8.678;2022-11-11T11:43:38;44.95;;;25.40;;
24715;SDS011;12822;50.124;8.678;2022-11-11T11:46:19;41.80;;;24.38;;
24715;SDS011;12822;50.124;8.678;2022-11-11T11:54:12;49.47;;;26.10;;
24715;SDS011;12822;50.124;8.678;2022-11-11T11:56:41;45.25;;;24.90;;
24715;SDS011;12822;50.124;8.678;2022-11-11T12:02:03;43.80;;;26.20;;
24715;SDS011;12822;50.124;8.678;2022-11-11T12:04:46;43.83;;;26.02;;
24715;SDS011;12822;50.124;8.678;2022-11-11T12:12:41;41.97;;;23.30;;
24715;SDS011;12822;50.124;8.678;2022-11-11T12:15:16;44.63;;;23.02;;
24715;SDS011;12822;50.124;8.678;2022-11-11T12:17:49;49.42;;;25.92;;
24715;SDS011;12822;50.124;8.678;2022-11-11T12:23:04;36.92;;;22.85;;
24715;SDS011;12822;50.124;8.678;2022-11-11T12:30:24;43.17;;;22.92;;
24715;SDS011;12822;50.124;8.678;2022-11-11T12:33:02;38.20;;;23.02;;
24715;SDS011;12822;50.124;8.678;2022-11-11T12:35:55;44.05;;;23.25;;
24715;SDS011;12822;50.124;8.678;2022-11-11T12:45:47;41.20;;;23.23;;
24715;SDS011;12822;50.124;8.678;2022-11-11T13:06:25;46.85;;;25.70;;
24715;SDS011;12822;50.124;8.678;2022-11-11T13:09:03;42.78;;;25.23;;
24715;SDS011;12822;50.124;8.678;2022-11-11T13:12:08;41.35;;;24.50;;
24715;SDS011;12822;50.124;8.678;2022-11-11T13:14:31;39.05;;;25.15;;
24715;SDS011;12822;50.124;8.678;2022-11-11T13:17:01;45.38;;;26.20;;
24715;SDS011;12822;50.124;8.678;2022-11-11T13:24:48;43.45;;;25.98;;
24715;SDS011;12822;50.124;8.678;2022-11-11T13:27:25;42.13;;;25.88;;
24715;SDS011;12822;50.124;8.678;2022-11-11T13:30:06;40.55;;;26.65;;
24715;SDS011;12822;50.124;8.678;2022-11-11T13:32:35;43.83;;;27.25;;
24715;SDS011;12822;50.124;8.678;2022-11-11T13:35:14;45.00;;;28.05;;
24715;SDS011;12822;50.124;8.678;2022-11-11T13:37:43;43.03;;;26.02;;
24715;SDS011;12822;50.124;8.678;2022-11-11T13:40:18;49.50;;;28.17;;
24715;SDS011;12822;50.124;8.678;2022-11-11T13:42:55;45.65;;;28.10;;
24715;SDS011;12822;50.124;8.678;2022-11-11T13:45:28;47.78;;;26.63;;
24715;SDS011;12822;50.124;8.678;2022-11-11T13:47:56;42.08;;;25.48;;
24715;SDS011;12822;50.124;8.678;2022-11-11T13:50:25;49.90;;;28.73;;
24715;SDS011;12822;50.124;8.678;2022-11-11T13:53:04;43.72;;;27.85;;
24715;SDS011;12822;50.124;8.678;2022-11-11T13:55:41;49.45;;;28.17;;
24715;SDS011;12822;50.124;8.678;2022-11-11T13:58:22;45.67;;;27.88;;
24715;SDS011;12822;50.124;8.678;2022-11-11T14:11:31;48.90;;;27.98;;
24715;SDS011;12822;50.124;8.678;2022-11-11T14:24:32;48.85;;;29.25;;
24715;SDS011;12822;50.124;8.678;2022-11-11T14:29:46;49.80;;;28.67;;
24715;SDS011;12822;50.124;8.678;2022-11-11T14:39:50;51.63;;;28.83;;
24715;SDS011;12822;50.124;8.678;2022-11-11T14:44:59;48.80;;;29.02;;
24715;SDS011;12822;50.124;8.678;2022-11-11T14:47:36;56.15;;;30.13;;
24715;SDS011;12822;50.124;8.678;2022-11-11T14:50:02;50.00;;;29.08;;
24715;SDS011;12822;50.124;8.678;2022-11-11T14:57:32;54.33;;;32.40;;
24715;SDS011;12822;50.124;8.678;2022-11-11T15:00:00;58.70;;;31.83;;
24715;SDS011;12822;50.124;8.678;2022-11-11T15:02:28;58.33;;;33.50;;
24715;SDS011;12822;50.124;8.678;2022-11-11T15:04:59;51.78;;;32.28;;
24715;SDS011;12822;50.124;8.678;2022-11-11T15:12:53;55.70;;;31.00;;
24715;SDS011;12822;50.124;8.678;2022-11-11T15:17:58;52.65;;;31.88;;
24715;SDS011;12822;50.124;8.678;2022-11-11T15:25:33;54.00;;;32.63;;
24715;SDS011;12822;50.124;8.678;2022-11-11T15:30:55;56.90;;;33.58;;
24715;SDS011;12822;50.124;8.678;2022-11-11T15:33:43;67.72;;;35.83;;
24715;SDS011;12822;50.124;8.678;2022-11-11T15:36:17;60.75;;;35.05;;
24715;SDS011;12822;50.124;8.678;2022-11-11T15:38:46;65.25;;;38.22;;
24715;SDS011;12822;50.124;8.678;2022-11-11T15:41:22;70.30;;;39.53;;
24715;SDS011;12822;50.124;8.678;2022-11-11T15:43:49;70.47;;;38.75;;
24715;SDS011;12822;50.124;8.678;2022-11-11T15:46:21;68.72;;;39.22;;
24715;SDS011;12822;50.124;8.678;2022-11-11T15:48:48;67.30;;;37.92;;
24715;SDS011;12822;50.124;8.678;2022-11-11T15:51:25;71.25;;;39.10;;
24715;SDS011;12822;50.124;8.678;2022-11-11T15:53:52;70.88;;;38.78;;
24715;SDS011;12822;50.124;8.678;2022-11-11T15:56:25;73.20;;;37.97;;
24715;SDS011;12822;50.124;8.678;2022-11-11T15:58:52;71.93;;;40.30;;
24715;SDS011;12822;50.124;8.678;2022-11-11T16:01:18;77.70;;;40.85;;
24715;SDS011;12822;50.124;8.678;2022-11-11T16:03:46;79.82;;;44.30;;
24715;SDS011;12822;50.124;8.678;2022-11-11T16:06:12;86.75;;;44.10;;
24715;SDS011;12822;50.124;8.678;2022-11-11T16:08:46;85.60;;;43.63;;
24715;SDS011;12822;50.124;8.678;2022-11-11T16:11:13;83.72;;;43.67;;
24715;SDS011;12822;50.124;8.678;2022-11-11T16:13:45;83.85;;;42.53;;
24715;SDS011;12822;50.124;8.678;2022-11-11T16:16:18;76.10;;;41.42;;
24715;SDS011;12822;50.124;8.678;2022-11-11T16:18:50;77.75;;;41.42;;
24715;SDS011;12822;50.124;8.678;2022-11-11T16:21:18;83.35;;;45.60;;
24715;SDS011;12822;50.124;8.678;2022-11-11T16:23:45;85.88;;;44.85;;
24715;SDS011;12822;50.124;8.678;2022-11-11T16:26:11;91.63;;;46.03;;
24715;SDS011;12822;50.124;8.678;2022-11-11T16:28:39;92.60;;;46.58;;
24715;SDS011;12822;50.124;8.678;2022-11-11T16:33:50;90.28;;;46.85;;
24715;SDS011;12822;50.124;8.678;2022-11-11T16:36:16;85.90;;;44.95;;
24715;SDS011;12822;50.124;8.678;2022-11-11T16:38:42;98.35;;;48.45;;
24715;SDS011;12822;50.124;8.678;2022-11-11T16:41:22;93.78;;;45.75;;
24715;SDS011;12822;50.124;8.678;2022-11-11T16:43:48;88.25;;;46.45;;
24715;SDS011;12822;50.124;8.678;2022-11-11T16:46:15;100.30;;;46.42;;
24715;SDS011;12822;50.124;8.678;2022-11-11T16:49:34;85.30;;;45.63;;
24715;SDS011;12822;50.124;8.678;2022-11-11T16:51:53;86.93;;;43.85;;
24715;SDS011;12822;50.124;8.678;2022-11-11T16:54:20;94.35;;;44.33;;
24715;SDS011;12822;50.124;8.678;2022-11-11T16:56:49;88.70;;;43.70;;
24715;SDS011;12822;50.124;8.678;2022-11-11T17:01:51;76.72;;;37.35;;
24715;SDS011;12822;50.124;8.678;2022-11-11T17:04:18;77.53;;;38.45;;
24715;SDS011;12822;50.124;8.678;2022-11-11T17:06:57;82.57;;;39.50;;